Time;durP1;ratioP1;P1;durP2;ratioP2;P2;SDS_P1;SDS_P2;PMS_P1;PMS_P2;Temp;Humidity;BMP_temperature;BMP_pressure;BME280_temperature;BME280_humidity;BME280_pressure;Samples;Min_cycle;Max_cycle;Signal;HPM_P1;HPM_P2
2023/02/18 00:01:17;;;;;;;;;;;;;;;;;;8323139;28;27230;-77
2023/02/18 00:05:17;;;;;;;;;;;;;;;;;;8327974;28;27223;-78
2023/02/18 00:09:17;;;;;;;;;;;;;;;;;;8322881;28;28694;-77
2023/02/18 00:13:17;;;;;;;;;;;;;;;;;;8317133;28;27226;-77
2023/02/18 00:17:18;;;;;;;;;;;;;;;;;;8320444;28;27543;-78
2023/02/18 00:21:18;;;;;;;;;;;;;;;;;;8324144;28;27763;-80
2023/02/18 00:25:18;;;;;;;;;;;;;;;;;;8318231;28;27954;-80
2023/02/18 00:29:18;;;;;;;;;;;;;;;;;;8321471;28;27591;-78
2023/02/18 00:33:18;;;;;;;;;;;;;;;;;;8317561;28;27341;-78
2023/02/18 00:37:18;;;;;;;;;;;;;;;;;;8314193;28;28901;-78
2023/02/18 00:41:18;;;;;;;;;;;;;;;;;;8315768;28;28887;-81
2023/02/18 00:45:18;;;;;;;;;;;;;;;;;;8318258;28;28612;-79
2023/02/18 00:49:18;;;;;;;;;;;;;;;;;;8322262;28;27416;-79
2023/02/18 00:53:18;;;;;;;;;;;;;;;;;;8322482;28;27589;-81
2023/02/18 00:57:19;;;;;;;;;;;;;;;;;;8322686;28;27230;-81
2023/02/18 01:01:19;;;;;;;;;;;;;;;;;;8327001;28;27439;-81
2023/02/18 01:05:19;;;;;;;;;;;;;;;;;;8322852;28;27430;-78
2023/02/18 01:09:19;;;;;;;;;;;;;;;;;;8319421;28;27368;-77
2023/02/18 01:13:19;;;;;;;;;;;;;;;;;;8320775;28;27543;-77
2023/02/18 01:17:19;;;;;;;;;;;;;;;;;;8316877;28;27266;-77
2023/02/18 01:21:19;;;;;;;;;;;;;;;;;;8322643;28;27102;-78
2023/02/18 01:25:19;;;;;;;;;;;;;;;;;;8319758;28;28529;-77
2023/02/18 01:29:19;;;;;;;;;;;;;;;;;;8317236;28;27775;-78
2023/02/18 01:33:19;;;;;;;;;;;;;;;;;;8323790;28;27300;-78
2023/02/18 01:37:19;;;;;;;;;;;;;;;;;;8326698;28;30027;-78
2023/02/18 01:41:19;;;;;;;;;;;;;;;;;;8322015;28;27521;-77
2023/02/18 01:45:20;;;;;;;;;;;;;;;;;;8322781;28;27224;-78
2023/02/18 01:49:20;;;;;;;;;;;;;;;;;;8324050;28;27266;-77
2023/02/18 01:53:20;;;;;;;;;;;;;;;;;;8325631;28;28773;-79
2023/02/18 01:57:20;;;;;;;;;;;;;;;;;;8332083;28;27174;-79
2023/02/18 02:01:20;;;;;;;;;;;;;;;;;;8333195;28;27160;-78
2023/02/18 02:05:20;;;;;;;;;;;;;;;;;;8329358;28;28642;-80
2023/02/18 02:09:20;;;;;;;;;;;;;;;;;;8329304;28;27201;-80
2023/02/18 02:13:20;;;;;;;;;;;;;;;;;;8327229;28;28785;-80
2023/02/18 02:17:20;;;;;;;;;;;;;;;;;;8328790;28;27415;-79
2023/02/18 02:21:21;;;;;;;;;;;;;;;;;;8321076;28;27605;-81
2023/02/18 02:25:21;;;;;;;;;;;;;;;;;;8325967;28;27532;-80
2023/02/18 02:29:21;;;;;;;;;;;;;;;;;;8331564;28;27332;-82
2023/02/18 02:33:21;;;;;;;;;;;;;;;;;;8333461;28;27423;-83
2023/02/18 02:37:24;;;;;;;;;;;;;;;;;;8334048;28;27554;-83
2023/02/18 02:41:24;;;;;;;;;;;;;;;;;;8331642;28;30316;-78
2023/02/18 02:45:24;;;;;;;;;;;;;;;;;;8331442;28;27253;-79
2023/02/18 02:49:24;;;;;;;;;;;;;;;;;;8333281;28;27113;-81
2023/02/18 02:53:24;;;;;;;;;;;;;;;;;;8332164;28;27075;-79
2023/02/18 02:57:24;;;;;;;;;;;;;;;;;;8331942;28;29319;-79
2023/02/18 03:01:24;;;;;;;;;;;;;;;;;;8330192;28;27500;-79
2023/02/18 03:05:25;;;;;;;;;;;;;;;;;;8333451;28;28103;-80
2023/02/18 03:09:25;;;;;;;;;;;;;;;;;;8326840;28;27166;-80
2023/02/18 03:13:25;;;;;;;;;;;;;;;;;;8330405;28;28584;-82
2023/02/18 03:17:25;;;;;;;;;;;;;;;;;;8333472;28;27437;-82
2023/02/18 03:21:25;;;;;;;;;;;;;;;;;;8333704;28;27224;-80
2023/02/18 03:25:25;;;;;;;;;;;;;;;;;;8332823;28;27372;-79
2023/02/18 03:29:25;;;;;;;;;;;;;;;;;;8332525;28;27311;-78
2023/02/18 03:33:25;;;;;;;;;;;;;;;;;;8330685;28;28652;-80
2023/02/18 03:37:26;;;;;;;;;;;;;;;;;;8327248;28;28441;-78
2023/02/18 03:41:26;;;;;;;;;;;;;;;;;;8331937;28;29921;-78
2023/02/18 03:45:26;;;;;;;;;;;;;;;;;;8329800;28;27442;-81
2023/02/18 03:49:26;;;;;;;;;;;;;;;;;;8327003;28;27584;-78
2023/02/18 03:53:26;;;;;;;;;;;;;;;;;;8329115;28;28315;-78
2023/02/18 03:57:26;;;;;;;;;;;;;;;;;;8328752;28;27751;-79
2023/02/18 04:01:26;;;;;;;;;;;;;;;;;;8332120;28;28208;-79
2023/02/18 04:05:27;;;;;;;;;;;;;;;;;;8334732;28;28906;-78
2023/02/18 04:09:27;;;;;;;;;;;;;;;;;;8324831;28;29812;-78
2023/02/18 04:13:27;;;;;;;;;;;;;;;;;;8327797;28;27278;-80
2023/02/18 04:17:27;;;;;;;;;;;;;;;;;;8331336;28;27172;-78
2023/02/18 04:21:27;;;;;;;;;;;;;;;;;;8329155;28;27244;-78
2023/02/18 04:25:27;;;;;;;;;;;;;;;;;;8329050;28;27307;-78
2023/02/18 04:29:27;;;;;;;;;;;;;;;;;;8326043;28;27425;-78
2023/02/18 04:33:28;;;;;;;;;;;;;;;;;;8330636;28;28862;-78
2023/02/18 04:37:28;;;;;;;;;;;;;;;;;;8326977;28;27401;-78
2023/02/18 04:41:28;;;;;;;;;;;;;;;;;;8330390;28;27186;-78
2023/02/18 04:45:28;;;;;;;;;;;;;;;;;;8329052;28;27848;-79
2023/02/18 04:49:28;;;;;;;;;;;;;;;;;;8331493;28;27403;-78
2023/02/18 04:53:28;;;;;;;;;;;;;;;;;;8330991;28;28479;-79
2023/02/18 04:57:28;;;;;;;;;;;;;;;;;;8329365;28;27881;-80
2023/02/18 05:01:31;;;;;;;;;;;;;;;;;;8326264;28;28451;-80
2023/02/18 05:05:31;;;;;;;;;;;;;;;;;;8328958;28;28517;-78
2023/02/18 05:09:31;;;;;;;;;;;;;;;;;;8332984;28;27329;-77
2023/02/18 05:13:31;;;;;;;;;;;;;;;;;;8334465;28;27012;-78
2023/02/18 05:17:31;;;;;;;;;;;;;;;;;;8326534;28;27150;-78
2023/02/18 05:21:31;;;;;;;;;;;;;;;;;;8329163;28;27588;-79
2023/02/18 05:25:32;;;;;;;;;;;;;;;;;;8331524;28;27072;-79
2023/02/18 05:29:32;;;;;;;;;;;;;;;;;;8328431;28;27095;-77
2023/02/18 05:33:32;;;;;;;;;;;;;;;;;;8331362;28;27125;-79
2023/02/18 05:37:32;;;;;;;;;;;;;;;;;;8329210;28;29107;-79
2023/02/18 05:41:32;;;;;;;;;;;;;;;;;;8330645;28;28583;-80
2023/02/18 05:45:32;;;;;;;;;;;;;;;;;;8333027;28;27108;-82
2023/02/18 05:49:32;;;;;;;;;;;;;;;;;;8328749;28;27134;-80
2023/02/18 05:53:32;;;;;;;;;;;;;;;;;;8323223;28;27203;-81
2023/02/18 05:57:32;;;;;;;;;;;;;;;;;;8330870;28;28295;-81
2023/02/18 06:01:32;;;;;;;;;;;;;;;;;;8330364;28;27182;-80
2023/02/18 06:05:32;;;;;;;;;;;;;;;;;;8325809;28;27923;-79
2023/02/18 06:09:33;;;;;;;;;;;;;;;;;;8325064;28;27322;-79
2023/02/18 06:13:33;;;;;;;;;;;;;;;;;;8322025;28;27268;-79
2023/02/18 06:17:33;;;;;;;;;;;;;;;;;;8330318;28;27480;-78
2023/02/18 06:21:33;;;;;;;;;;;;;;;;;;8322331;28;27418;-79
2023/02/18 06:25:33;;;;;;;;;;;;;;;;;;8323477;28;27522;-78
2023/02/18 06:29:35;;;;;;;;;;;;;;;;;;8332190;28;27339;-79
2023/02/18 06:33:35;;;;;;;;;;;;;;;;;;8328453;28;27182;-79
2023/02/18 06:37:35;;;;;;;;;;;;;;;;;;8321399;28;28442;-80
2023/02/18 06:41:35;;;;;;;;;;;;;;;;;;8330865;28;28564;-79
2023/02/18 06:45:35;;;;;;;;;;;;;;;;;;8331637;28;27793;-79
2023/02/18 06:49:37;;;;;;;;;;;;;;;;;;8331792;28;27387;-79
2023/02/18 06:53:37;;;;;;;;;;;;;;;;;;8325902;28;27378;-78
2023/02/18 06:57:37;;;;;;;;;;;;;;;;;;8327185;28;27310;-79
2023/02/18 07:01:38;;;;;;;;;;;;;;;;;;8331054;28;29075;-80
2023/02/18 07:05:38;;;;;;;;;;;;;;;;;;8330264;28;28808;-78
2023/02/18 07:09:38;;;;;;;;;;;;;;;;;;8326215;28;27533;-79
2023/02/18 07:13:38;;;;;;;;;;;;;;;;;;8332822;28;27313;-80
2023/02/18 07:17:38;;;;;;;;;;;;;;;;;;8334557;28;27324;-79
2023/02/18 07:21:38;;;;;;;;;;;;;;;;;;8332350;28;27052;-79
2023/02/18 07:25:38;;;;;;;;;;;;;;;;;;8330568;28;27238;-79
2023/02/18 07:29:38;;;;;;;;;;;;;;;;;;8333844;28;27374;-78
2023/02/18 07:33:38;;;;;;;;;;;;;;;;;;8336473;28;27900;-79
2023/02/18 07:37:38;;;;;;;;;;;;;;;;;;8339364;28;27280;-78
2023/02/18 07:41:38;;;;;;;;;;;;;;;;;;8327103;28;28245;-79
2023/02/18 07:45:38;;;;;;;;;;;;;;;;;;8321292;28;27252;-79
2023/02/18 07:49:39;;;;;;;;;;;;;;;;;;8333748;28;27093;-78
2023/02/18 07:53:39;;;;;;;;;;;;;;;;;;8333849;28;27174;-80
2023/02/18 07:57:56;;;;;;;;;;;;;;;;;;8331682;28;28888;-80
2023/02/18 08:01:56;;;;;;;;;;;;;;;;;;8334475;28;29236;-78
2023/02/18 08:05:56;;;;;;;;;;;;;;;;;;8331538;28;27496;-78
2023/02/18 08:09:56;;;;;;;;;;;;;;;;;;8335721;28;28982;-78
2023/02/18 08:13:56;;;;;;;;;;;;;;;;;;8333673;28;27082;-80
2023/02/18 08:17:56;;;;;;;;;;;;;;;;;;8331628;28;27227;-79
2023/02/18 08:21:56;;;;;;;;;;;;;;;;;;8327197;28;27583;-78
2023/02/18 08:25:56;;;;;;;;;;;;;;;;;;8324750;28;27582;-80
2023/02/18 08:29:56;;;;;;;;;;;;;;;;;;8334254;28;27069;-77
2023/02/18 08:33:57;;;;;;;;;;;;;;;;;;8326184;28;28798;-78
2023/02/18 08:37:57;;;;;;;;;;;;;;;;;;8328241;28;27740;-79
2023/02/18 08:41:57;;;;;;;;;;;;;;;;;;8322094;28;27589;-78
2023/02/18 08:45:57;;;;;;;;;;;;;;;;;;8330770;28;27676;-78
2023/02/18 08:49:57;;;;;;;;;;;;;;;;;;8331400;28;28682;-79
2023/02/18 08:53:58;;;;;;;;;;;;;;;;;;8335570;28;27829;-78
2023/02/18 08:57:58;;;;;;;;;;;;;;;;;;8337378;28;27308;-79
2023/02/18 09:01:58;;;;;;;;;;;;;;;;;;8336825;28;28684;-78
2023/02/18 09:05:58;;;;;;;;;;;;;;;;;;8330106;28;27670;-79
2023/02/18 09:09:58;;;;;;;;;;;;;;;;;;8329664;28;28466;-79
2023/02/18 09:13:58;;;;;;;;;;;;;;;;;;8331795;28;27139;-78
2023/02/18 09:17:58;;;;;;;;;;;;;;;;;;8325955;28;28549;-79
2023/02/18 09:21:58;;;;;;;;;;;;;;;;;;8331073;28;27503;-79
2023/02/18 09:25:58;;;;;;;;;;;;;;;;;;8331684;28;27715;-79
2023/02/18 09:29:59;;;;;;;;;;;;;;;;;;8337458;28;27049;-80
2023/02/18 09:33:59;;;;;;;;;;;;;;;;;;8332609;28;27440;-82
2023/02/18 09:37:59;;;;;;;;;;;;;;;;;;8327600;28;28637;-79
2023/02/18 09:41:59;;;;;;;;;;;;;;;;;;8331990;28;27031;-80
2023/02/18 09:45:59;;;;;;;;;;;;;;;;;;8333909;28;28590;-80
2023/02/18 09:49:59;;;;;;;;;;;;;;;;;;8330067;28;27124;-79
2023/02/18 09:53:59;;;;;;;;;;;;;;;;;;8334144;28;27789;-81
2023/02/18 09:57:59;;;;;;;;;;;;;;;;;;8326793;28;28395;-80
2023/02/18 10:01:59;;;;;;;;;;;;;;;;;;8330781;28;28734;-78
2023/02/18 10:06:00;;;;;;;;;;;;;;;;;;8330938;28;28679;-78
2023/02/18 10:10:00;;;;;;;;;;;;;;;;;;8331009;28;28919;-79
2023/02/18 10:14:00;;;;;;;;;;;;;;;;;;8322704;28;29379;-78
2023/02/18 10:18:00;;;;;;;;;;;;;;;;;;8330283;28;27390;-79
2023/02/18 10:22:00;;;;;;;;;;;;;;;;;;8325099;28;29623;-79
2023/02/18 10:26:00;;;;;;;;;;;;;;;;;;8325574;28;27166;-79
2023/02/18 10:30:00;;;;;;;;;;;;;;;;;;8324137;28;27566;-79
2023/02/18 10:34:00;;;;;;;;;;;;;;;;;;8324970;28;27961;-79
2023/02/18 10:38:00;;;;;;;;;;;;;;;;;;8322148;28;27917;-79
2023/02/18 10:42:00;;;;;;;;;;;;;;;;;;8319610;28;27287;-80
2023/02/18 10:46:00;;;;;;;;;;;;;;;;;;8321857;28;27274;-78
2023/02/18 10:50:01;;;;;;;;;;;;;;;;;;8321267;28;28879;-77
2023/02/18 10:54:01;;;;;;;;;;;;;;;;;;8327148;28;28615;-80
2023/02/18 10:58:01;;;;;;;;;;;;;;;;;;8327843;28;28440;-78
2023/02/18 11:02:01;;;;;;;;;;;;;;;;;;8322832;28;27098;-78
2023/02/18 11:06:01;;;;;;;;;;;;;;;;;;8329297;28;28723;-77
2023/02/18 11:10:01;;;;;;;;;;;;;;;;;;8332266;28;28955;-78
2023/02/18 11:14:02;;;;;;;;;;;;;;;;;;8327306;28;27203;-77
2023/02/18 11:18:02;;;;;;;;;;;;;;;;;;8321872;28;28145;-78
2023/02/18 11:22:02;;;;;;;;;;;;;;;;;;8325102;28;28354;-79
2023/02/18 11:26:02;;;;;;;;;;;;;;;;;;8319406;28;28841;-78
2023/02/18 11:30:02;;;;;;;;;;;;;;;;;;8316924;28;27305;-78
2023/02/18 11:34:02;;;;;;;;;;;;;;;;;;8316896;28;29767;-80
2023/02/18 11:38:02;;;;;;;;;;;;;;;;;;8315583;28;27142;-79
2023/02/18 11:42:02;;;;;;;;;;;;;;;;;;8314069;28;27578;-79
2023/02/18 11:46:03;;;;;;;;;;;;;;;;;;8308057;28;27766;-79
2023/02/18 11:50:03;;;;;;;;;;;;;;;;;;8317201;28;27290;-80
2023/02/18 11:54:03;;;;;;;;;;;;;;;;;;8319290;28;27508;-79
2023/02/18 11:58:04;;;;;;;;;;;;;;;;;;8313746;28;28379;-80
2023/02/18 12:02:04;;;;;;;;;;;;;;;;;;8313892;28;27165;-78
2023/02/18 12:06:05;;;;;;;;;;;;;;;;;;8322593;28;29575;-79
2023/02/18 12:10:05;;;;;;;;;;;;;;;;;;8320233;28;28663;-79
2023/02/18 12:14:34;;;;;;;;;;;;;;;;;;;;;
2023/02/18 12:18:47;;;;;;;;;;;;;;;;;;8315274;28;57018;-79
2023/02/18 12:22:47;;;;;;;;;;;;;;;;;;8315684;28;27729;-79
2023/02/18 12:26:47;;;;;;;;;;;;;;;;;;8319742;28;27040;-79
2023/02/18 12:30:47;;;;;;;;;;;;;;;;;;8312432;28;27588;-78
2023/02/18 12:34:47;;;;;;;;;;;;;;;;;;8319658;28;27502;-80
2023/02/18 12:38:47;;;;;;;;;;;;;;;;;;8321508;28;28359;-80
2023/02/18 12:42:47;;;;;;;;;;;;;;;;;;8322555;28;27504;-79
2023/02/18 12:46:47;;;;;;;;;;;;;;;;;;8323424;28;28483;-82
2023/02/18 12:50:48;;;;;;;;;;;;;;;;;;8323685;28;27628;-79
2023/02/18 12:54:48;;;;;;;;;;;;;;;;;;8326616;28;28300;-80
2023/02/18 12:58:48;;;;;;;;;;;;;;;;;;9008412;23;27739;-77
2023/02/18 13:02:48;;;;;;;;;;;;;;;;;;8310072;28;28954;-80
2023/02/18 13:06:48;;;;;;;;;;;;;;;;;;8311221;28;27383;-80
2023/02/18 13:10:48;;;;;;;;;;;;;;;;;;8301537;28;28186;-80
2023/02/18 13:14:48;;;;;;;;;;;;;;;;;;8296079;28;27377;-79
2023/02/18 13:18:48;;;;;;;;;;;;;;;;;;8294300;28;28286;-80
2023/02/18 13:22:49;;;;;;;;;;;;;;;;;;8293730;28;28171;-81
2023/02/18 13:26:49;;;;;;;;;;;;;;;;;;8304241;28;29609;-81
2023/02/18 13:30:49;;;;;;;;;;;;;;;;;;8292265;28;29176;-79
2023/02/18 13:37:33;;;;;;;;;;;;;;;;;;8516450;27;27163;-82
2023/02/18 13:41:33;;;;;;;;;;;;;;;;;;8517046;27;28094;-81
2023/02/18 13:45:33;;;;;;;;;;;;;;;;;;8501716;27;28515;-82
2023/02/18 13:49:34;;;;;;;;;;;;;;;;;;8505314;27;27972;-83
2023/02/18 13:53:34;;;;;;;;;;;;;;;;;;8510216;27;28422;-79
2023/02/18 13:57:34;;;;;;;;;;;;;;;;;;8508631;27;28647;-83
2023/02/18 14:01:34;;;;;;;;;;;;;;;;;;8497782;27;28462;-81
2023/02/18 14:05:34;;;;;;;;;;;;;;;;;;8506141;27;28983;-81
2023/02/18 14:09:34;;;;;;;;;;;;;;;;;;8507174;27;27816;-81
2023/02/18 14:13:34;;;;;;;;;;;;;;;;;;8507169;27;28280;-81
2023/02/18 14:17:34;;;;;;;;;;;;;;;;;;8504522;27;27138;-81
2023/02/18 14:21:35;;;;;;;;;;;;;;;;;;8508716;27;28461;-81
2023/02/18 14:25:35;;;;;;;;;;;;;;;;;;8503475;27;28925;-81
2023/02/18 14:29:35;;;;;;;;;;;;;;;;;;8509547;27;28339;-81
2023/02/18 14:33:35;;;;;;;;;;;;;;;;;;8500983;27;27603;-81
2023/02/18 14:37:35;;;;;;;;;;;;;;;;;;8503920;27;28838;-80
2023/02/18 14:41:35;;;;;;;;;;;;;;;;;;8503877;27;28467;-81
2023/02/18 14:45:35;;;;;;;;;;;;;;;;;;8494727;27;27448;-81
2023/02/18 14:49:35;;;;;;;;;;;;;;;;;;8483872;27;28893;-79
2023/02/18 14:53:35;;;;;;;;;;;;;;;;;;8483677;27;28690;-81
2023/02/18 14:57:35;;;;;;;;;;;;;;;;;;8479375;27;28541;-82
2023/02/18 15:01:36;;;;;;;;;;;;;;;;;;8489811;27;28409;-82
2023/02/18 15:05:36;;;;;;;;;;;;;;;;;;8478898;27;28364;-82
2023/02/18 15:09:36;;;;;;;;;;;;;;;;;;8489904;27;28991;-82
2023/02/18 15:13:36;;;;;;;;;;;;;;;;;;8503568;27;27371;-83
2023/02/18 15:17:36;;;;;;;;;;;;;;;;;;8486139;27;28221;-81
2023/02/18 15:21:36;;;;;;;;;;;;;;;;;;8480830;27;27492;-82
2023/02/18 15:25:36;;;;;;;;;;;;;;;;;;8510404;27;28083;-80
2023/02/18 15:29:36;;;;;;;;;;;;;;;;;;8507483;27;27608;-80
2023/02/18 15:33:36;;;;;;;;;;;;;;;;;;8500413;27;29937;-81
2023/02/18 15:37:36;;;;;;;;;;;;;;;;;;8506826;27;27560;-81
2023/02/18 15:41:36;;;;;;;;;;;;;;;;;;8505374;27;28726;-83
2023/02/18 15:45:37;;;;;;;;;;;;;;;;;;8499748;27;27174;-82
2023/02/18 15:49:37;;;;;;;;;;;;;;;;;;8495000;27;28463;-82
2023/02/18 15:53:37;;;;;;;;;;;;;;;;;;8499171;27;27205;-81
2023/02/18 15:57:37;;;;;;;;;;;;;;;;;;8504258;27;28681;-81
2023/02/18 16:01:37;;;;;;;;;;;;;;;;;;8499485;27;28660;-82
2023/02/18 16:05:37;;;;;;;;;;;;;;;;;;8483534;27;28592;-83
2023/02/18 16:09:37;;;;;;;;;;;;;;;;;;8478753;27;28179;-82
2023/02/18 16:13:37;;;;;;;;;;;;;;;;;;8484975;27;28694;-80
2023/02/18 16:17:37;;;;;;;;;;;;;;;;;;8479265;27;29639;-81
2023/02/18 16:21:38;;;;;;;;;;;;;;;;;;8479874;27;27148;-82
2023/02/18 16:25:38;;;;;;;;;;;;;;;;;;8484947;27;28844;-80
2023/02/18 16:29:38;;;;;;;;;;;;;;;;;;8480009;27;29679;-81
2023/02/18 16:33:38;;;;;;;;;;;;;;;;;;8481196;27;27580;-82
2023/02/18 16:37:39;;;;;;;;;;;;;;;;;;8488085;27;28791;-82
2023/02/18 16:41:39;;;;;;;;;;;;;;;;;;8477721;27;27467;-79
2023/02/18 16:45:39;;;;;;;;;;;;;;;;;;8476040;27;27373;-80
2023/02/18 16:49:39;;;;;;;;;;;;;;;;;;8473632;27;28935;-82
2023/02/18 16:53:39;;;;;;;;;;;;;;;;;;8477044;27;28042;-83
2023/02/18 16:57:39;;;;;;;;;;;;;;;;;;8478005;27;27262;-82
2023/02/18 17:01:43;;;;;;;;;;;;;;;;;;8479640;27;27236;-84
2023/02/18 17:05:43;;;;;;;;;;;;;;;;;;8495998;27;27380;-85
2023/02/18 17:09:43;;;;;;;;;;;;;;;;;;8493426;27;28814;-86
2023/02/18 17:13:43;;;;;;;;;;;;;;;;;;8482694;27;28462;-82
2023/02/18 17:17:43;;;;;;;;;;;;;;;;;;8483183;27;28589;-82
2023/02/18 17:21:43;;;;;;;;;;;;;;;;;;8488225;27;27407;-82
2023/02/18 17:25:44;;;;;;;;;;;;;;;;;;8484675;27;28473;-85
2023/02/18 17:29:44;;;;;;;;;;;;;;;;;;8493792;27;28523;-82
2023/02/18 17:33:44;;;;;;;;;;;;;;;;;;8504369;27;29844;-82
2023/02/18 17:37:44;;;;;;;;;;;;;;;;;;8510915;27;27656;-82
2023/02/18 17:41:44;;;;;;;;;;;;;;;;;;8508772;27;28444;-82
2023/02/18 17:45:44;;;;;;;;;;;;;;;;;;8492351;27;28766;-83
2023/02/18 17:49:45;;;;;;;;;;;;;;;;;;8486428;27;27272;-82
2023/02/18 17:53:45;;;;;;;;;;;;;;;;;;8493793;27;27409;-82
2023/02/18 17:57:45;;;;;;;;;;;;;;;;;;8485292;27;27052;-83
2023/02/18 18:01:45;;;;;;;;;;;;;;;;;;8485468;27;28139;-82
2023/02/18 18:05:45;;;;;;;;;;;;;;;;;;8477060;27;28881;-85
2023/02/18 18:09:45;;;;;;;;;;;;;;;;;;8481358;27;29964;-84
2023/02/18 18:13:45;;;;;;;;;;;;;;;;;;8474960;27;28526;-84
2023/02/18 18:17:45;;;;;;;;;;;;;;;;;;8474141;27;27395;-86
2023/02/18 18:21:47;;;;;;;;;;;;;;;;;;8489394;27;28615;-82
2023/02/18 18:25:47;;;;;;;;;;;;;;;;;;8487276;27;27253;-84
2023/02/18 18:29:48;;;;;;;;;;;;;;;;;;8495289;27;28428;-86
2023/02/18 18:33:49;;;;;;;;;;;;;;;;;;8480404;27;27677;-83
2023/02/18 18:37:49;;;;;;;;;;;;;;;;;;8496599;27;28665;-83
2023/02/18 18:41:49;;;;;;;;;;;;;;;;;;8493159;27;27264;-83
2023/02/18 18:45:49;;;;;;;;;;;;;;;;;;8490709;27;28791;-84
2023/02/18 18:49:50;;;;;;;;;;;;;;;;;;8492007;27;29016;-83
2023/02/18 18:53:50;;;;;;;;;;;;;;;;;;8486795;27;27759;-84
2023/02/18 18:57:50;;;;;;;;;;;;;;;;;;8482184;27;28496;-82
2023/02/18 19:01:50;;;;;;;;;;;;;;;;;;8491272;27;28703;-83
2023/02/18 19:05:50;;;;;;;;;;;;;;;;;;8488077;27;28874;-83
2023/02/18 19:09:50;;;;;;;;;;;;;;;;;;8488392;27;28701;-83
2023/02/18 19:13:50;;;;;;;;;;;;;;;;;;8488760;27;28444;-83
2023/02/18 19:17:50;;;;;;;;;;;;;;;;;;8494017;27;27723;-84
2023/02/18 19:21:52;;;;;;;;;;;;;;;;;;8486494;27;28314;-87
2023/02/18 19:25:52;;;;;;;;;;;;;;;;;;8488941;27;28799;-85
2023/02/18 19:29:53;;;;;;;;;;;;;;;;;;8491663;27;29525;-84
2023/02/18 19:33:54;;;;;;;;;;;;;;;;;;8481112;27;28737;-84
2023/02/18 19:37:54;;;;;;;;;;;;;;;;;;8494240;27;28556;-81
2023/02/18 19:41:54;;;;;;;;;;;;;;;;;;8488359;27;28266;-83
2023/02/18 19:45:54;;;;;;;;;;;;;;;;;;8483918;27;28678;-83
2023/02/18 19:49:54;;;;;;;;;;;;;;;;;;8482759;27;28405;-83
2023/02/18 19:53:54;;;;;;;;;;;;;;;;;;8483635;27;27320;-83
2023/02/18 19:57:54;;;;;;;;;;;;;;;;;;8494638;27;28446;-83
2023/02/18 20:01:55;;;;;;;;;;;;;;;;;;8492564;27;28787;-84
2023/02/18 20:05:55;;;;;;;;;;;;;;;;;;8485067;27;27292;-84
2023/02/18 20:09:55;;;;;;;;;;;;;;;;;;8488602;27;30203;-84
2023/02/18 20:13:55;;;;;;;;;;;;;;;;;;8483593;27;28455;-83
2023/02/18 20:17:55;;;;;;;;;;;;;;;;;;8494002;27;27245;-85
2023/02/18 20:21:55;;;;;;;;;;;;;;;;;;8489160;27;27265;-84
2023/02/18 20:25:55;;;;;;;;;;;;;;;;;;8482601;27;27684;-85
2023/02/18 20:29:55;;;;;;;;;;;;;;;;;;8484066;27;27159;-86
2023/02/18 20:33:55;;;;;;;;;;;;;;;;;;8478491;27;27148;-85
2023/02/18 20:37:56;;;;;;;;;;;;;;;;;;8480320;27;27200;-86
2023/02/18 20:41:56;;;;;;;;;;;;;;;;;;8473819;27;28622;-84
2023/02/18 20:45:56;;;;;;;;;;;;;;;;;;8485091;27;27288;-83
2023/02/18 20:49:56;;;;;;;;;;;;;;;;;;8480985;27;29712;-83
2023/02/18 20:53:56;;;;;;;;;;;;;;;;;;8480777;27;27162;-84
2023/02/18 20:57:56;;;;;;;;;;;;;;;;;;8489350;27;28533;-84
2023/02/18 21:01:56;;;;;;;;;;;;;;;;;;8475880;27;28167;-84
2023/02/18 21:05:56;;;;;;;;;;;;;;;;;;8481701;27;27295;-84
2023/02/18 21:09:56;;;;;;;;;;;;;;;;;;8482203;27;28631;-83
2023/02/18 21:13:57;;;;;;;;;;;;;;;;;;8491013;27;28466;-83
2023/02/18 21:17:57;;;;;;;;;;;;;;;;;;8483299;27;28918;-83
2023/02/18 21:21:57;;;;;;;;;;;;;;;;;;8477105;27;28073;-83
2023/02/18 21:25:57;;;;;;;;;;;;;;;;;;8485095;27;27200;-84
2023/02/18 21:29:57;;;;;;;;;;;;;;;;;;8487349;27;29903;-84
2023/02/18 21:33:57;;;;;;;;;;;;;;;;;;8484674;27;27294;-83
2023/02/18 21:37:57;;;;;;;;;;;;;;;;;;8486870;27;27075;-81
2023/02/18 21:41:58;;;;;;;;;;;;;;;;;;8486384;27;27550;-84
2023/02/18 21:45:59;;;;;;;;;;;;;;;;;;8485208;27;28839;-85
2023/02/18 21:49:59;;;;;;;;;;;;;;;;;;8489423;27;30251;-84
2023/02/18 21:53:59;;;;;;;;;;;;;;;;;;8483420;27;28626;-84
2023/02/18 21:57:59;;;;;;;;;;;;;;;;;;8491796;27;29039;-84
2023/02/18 22:01:59;;;;;;;;;;;;;;;;;;8490502;27;27252;-84
2023/02/18 22:05:59;;;;;;;;;;;;;;;;;;8490817;27;28658;-83
2023/02/18 22:09:59;;;;;;;;;;;;;;;;;;8483616;27;28829;-83
2023/02/18 22:13:59;;;;;;;;;;;;;;;;;;8484064;27;28517;-83
2023/02/18 22:17:59;;;;;;;;;;;;;;;;;;8494975;27;28664;-83
2023/02/18 22:22:01;;;;;;;;;;;;;;;;;;8493394;27;28532;-85
2023/02/18 22:26:01;;;;;;;;;;;;;;;;;;8482740;27;28944;-84
2023/02/18 22:30:01;;;;;;;;;;;;;;;;;;8499756;27;28789;-84
2023/02/18 22:34:01;;;;;;;;;;;;;;;;;;8490034;27;27189;-84
2023/02/18 22:38:01;;;;;;;;;;;;;;;;;;8475754;27;28586;-84
2023/02/18 22:42:01;;;;;;;;;;;;;;;;;;8496134;27;28089;-84
2023/02/18 22:46:02;;;;;;;;;;;;;;;;;;8483653;27;29014;-85
2023/02/18 22:50:02;;;;;;;;;;;;;;;;;;8481849;27;27279;-86
2023/02/18 22:54:02;;;;;;;;;;;;;;;;;;8490128;27;28840;-85
2023/02/18 22:58:02;;;;;;;;;;;;;;;;;;8499811;27;28863;-85
2023/02/18 23:02:02;;;;;;;;;;;;;;;;;;8483717;27;27347;-83
2023/02/18 23:06:02;;;;;;;;;;;;;;;;;;8488546;27;27375;-87
2023/02/18 23:10:02;;;;;;;;;;;;;;;;;;8485186;27;29003;-84
2023/02/18 23:14:17;;;;;;;;;;;;;;;;;;8490682;27;27806;-84
2023/02/18 23:18:18;;;;;;;;;;;;;;;;;;8480904;27;27247;-83
2023/02/18 23:22:18;;;;;;;;;;;;;;;;;;8483774;27;27263;-83
2023/02/18 23:26:18;;;;;;;;;;;;;;;;;;8488747;27;27272;-81
2023/02/18 23:30:18;;;;;;;;;;;;;;;;;;8487445;27;28620;-84
2023/02/18 23:34:18;;;;;;;;;;;;;;;;;;8487567;27;29523;-83
2023/02/18 23:38:18;;;;;;;;;;;;;;;;;;8489049;27;28858;-85
2023/02/18 23:42:18;;;;;;;;;;;;;;;;;;8483010;27;28679;-84
2023/02/18 23:46:18;;;;;;;;;;;;;;;;;;8482227;27;27305;-84
2023/02/18 23:50:18;;;;;;;;;;;;;;;;;;8490462;27;28837;-85
2023/02/18 23:54:19;;;;;;;;;;;;;;;;;;8486976;27;28527;-85
2023/02/18 23:58:19;;;;;;;;;;;;;;;;;;8489455;27;28732;-84
